sensor_id;sensor_type;location;lat;lon;timestamp;pressure;altitude;pressure_sealevel;temperature;humidity
11223;BME280;5668;52.012;8.724;2023-01-26T00:00:57;101074.41;;;1.55;89.98
11223;BME280;5668;52.012;8.724;2023-01-26T00:03:25;101064.16;;;1.55;89.77
11223;BME280;5668;52.012;8.724;2023-01-26T00:05:53;101063.31;;;1.56;89.46
11223;BME280;5668;52.012;8.724;2023-01-26T00:08:20;101055.63;;;1.56;89.82
11223;BME280;5668;52.012;8.724;2023-01-26T00:10:48;101058.19;;;1.56;89.92
11223;BME280;5668;52.012;8.724;2023-01-26T00:13:17;101042.81;;;1.56;89.45
11223;BME280;5668;52.012;8.724;2023-01-26T00:15:45;101046.25;;;1.55;89.98
11223;BME280;5668;52.012;8.724;2023-01-26T00:18:13;101043.75;;;1.50;88.85
11223;BME280;5668;52.012;8.724;2023-01-26T00:20:41;101042.09;;;1.49;89.53
11223;BME280;5668;52.012;8.724;2023-01-26T00:23:08;101033.59;;;1.47;89.66
11223;BME280;5668;52.012;8.724;2023-01-26T00:25:37;101035.44;;;1.42;88.77
11223;BME280;5668;52.012;8.724;2023-01-26T00:28:05;101038.94;;;1.37;88.91
11223;BME280;5668;52.012;8.724;2023-01-26T00:30:33;101036.44;;;1.34;89.58
11223;BME280;5668;52.012;8.724;2023-01-26T00:33:00;101034.63;;;1.39;90.13
11223;BME280;5668;52.012;8.724;2023-01-26T00:35:28;101022.56;;;1.44;90.49
11223;BME280;5668;52.012;8.724;2023-01-26T00:37:56;101024.22;;;1.48;90.85
11223;BME280;5668;52.012;8.724;2023-01-26T00:40:23;101025.91;;;1.49;90.67
11223;BME280;5668;52.012;8.724;2023-01-26T00:42:50;101027.50;;;1.53;90.25
11223;BME280;5668;52.012;8.724;2023-01-26T00:45:19;101015.53;;;1.53;90.00
11223;BME280;5668;52.012;8.724;2023-01-26T00:47:46;101013.00;;;1.52;90.68
11223;BME280;5668;52.012;8.724;2023-01-26T00:50:15;101016.41;;;1.52;90.24
11223;BME280;5668;52.012;8.724;2023-01-26T00:52:44;101010.44;;;1.52;89.90
11223;BME280;5668;52.012;8.724;2023-01-26T00:55:11;101011.41;;;1.48;89.21
11223;BME280;5668;52.012;8.724;2023-01-26T00:57:38;101001.28;;;1.42;89.91
11223;BME280;5668;52.012;8.724;2023-01-26T01:00:06;100992.91;;;1.35;89.45
11223;BME280;5668;52.012;8.724;2023-01-26T01:02:35;100992.25;;;1.26;90.23
11223;BME280;5668;52.012;8.724;2023-01-26T01:05:03;100982.00;;;1.26;90.21
11223;BME280;5668;52.012;8.724;2023-01-26T01:07:30;100984.72;;;1.18;89.78
11223;BME280;5668;52.012;8.724;2023-01-26T01:09:58;100989.88;;;1.16;90.66
11223;BME280;5668;52.012;8.724;2023-01-26T01:12:26;100985.63;;;1.15;91.59
11223;BME280;5668;52.012;8.724;2023-01-26T01:14:53;100978.81;;;1.14;91.40
11223;BME280;5668;52.012;8.724;2023-01-26T01:17:21;100980.63;;;1.09;91.12
11223;BME280;5668;52.012;8.724;2023-01-26T01:19:48;100971.31;;;1.05;91.75
11223;BME280;5668;52.012;8.724;2023-01-26T01:22:15;100970.41;;;1.08;91.71
11223;BME280;5668;52.012;8.724;2023-01-26T01:24:43;100969.50;;;1.12;92.37
11223;BME280;5668;52.012;8.724;2023-01-26T01:27:11;100965.16;;;1.15;92.72
11223;BME280;5668;52.012;8.724;2023-01-26T01:29:39;100965.88;;;1.21;91.77
11223;BME280;5668;52.012;8.724;2023-01-26T01:32:06;100961.59;;;1.23;92.27
11223;BME280;5668;52.012;8.724;2023-01-26T01:34:33;100964.13;;;1.24;91.65
11223;BME280;5668;52.012;8.724;2023-01-26T01:37:00;100958.16;;;1.24;92.24
11223;BME280;5668;52.012;8.724;2023-01-26T01:39:27;100964.00;;;1.29;92.16
11223;BME280;5668;52.012;8.724;2023-01-26T01:41:55;100963.91;;;1.35;92.12
11223;BME280;5668;52.012;8.724;2023-01-26T01:44:24;100956.97;;;1.38;91.40
11223;BME280;5668;52.012;8.724;2023-01-26T01:46:53;100946.72;;;1.40;92.35
11223;BME280;5668;52.012;8.724;2023-01-26T01:49:24;100942.41;;;1.42;91.29
11223;BME280;5668;52.012;8.724;2023-01-26T01:51:55;100946.63;;;1.43;92.28
11223;BME280;5668;52.012;8.724;2023-01-26T01:54:27;100941.44;;;1.46;91.74
11223;BME280;5668;52.012;8.724;2023-01-26T01:56:59;100934.59;;;1.48;92.22
11223;BME280;5668;52.012;8.724;2023-01-26T01:59:30;100938.84;;;1.49;91.15
11223;BME280;5668;52.012;8.724;2023-01-26T02:01:58;100938.84;;;1.49;91.25
11223;BME280;5668;52.012;8.724;2023-01-26T02:04:26;100938.75;;;1.52;91.09
11223;BME280;5668;52.012;8.724;2023-01-26T02:06:56;100934.41;;;1.55;91.52
11223;BME280;5668;52.012;8.724;2023-01-26T02:09:29;100930.91;;;1.58;91.28
11223;BME280;5668;52.012;8.724;2023-01-26T02:12:16;100931.81;;;1.57;91.70
11223;BME280;5668;52.012;8.724;2023-01-26T02:14:47;100939.38;;;1.62;91.65
11223;BME280;5668;52.012;8.724;2023-01-26T02:17:14;100933.34;;;1.64;91.38
11223;BME280;5668;52.012;8.724;2023-01-26T02:19:49;100940.16;;;1.65;90.86
11223;BME280;5668;52.012;8.724;2023-01-26T02:22:31;100938.47;;;1.64;90.55
11223;BME280;5668;52.012;8.724;2023-01-26T02:25:05;100941.03;;;1.64;90.63
11223;BME280;5668;52.012;8.724;2023-01-26T02:27:37;100935.09;;;1.62;90.46
11223;BME280;5668;52.012;8.724;2023-01-26T02:30:06;100935.91;;;1.64;90.54
11223;BME280;5668;52.012;8.724;2023-01-26T02:32:33;100929.94;;;1.65;90.99
11223;BME280;5668;52.012;8.724;2023-01-26T02:35:01;100929.03;;;1.66;91.08
11223;BME280;5668;52.012;8.724;2023-01-26T02:37:28;100938.38;;;1.67;91.25
11223;BME280;5668;52.012;8.724;2023-01-26T02:39:58;100932.41;;;1.68;90.65
11223;BME280;5668;52.012;8.724;2023-01-26T02:42:28;100928.16;;;1.67;90.93
11223;BME280;5668;52.012;8.724;2023-01-26T02:45:06;100925.63;;;1.66;90.71
11223;BME280;5668;52.012;8.724;2023-01-26T02:47:33;100930.75;;;1.66;90.79
11223;BME280;5668;52.012;8.724;2023-01-26T02:50:01;100931.66;;;1.63;90.78
11223;BME280;5668;52.012;8.724;2023-01-26T02:52:28;100936.88;;;1.59;90.81
11223;BME280;5668;52.012;8.724;2023-01-26T02:54:56;100925.78;;;1.58;91.19
11223;BME280;5668;52.012;8.724;2023-01-26T02:57:41;100934.38;;;1.57;91.46
11223;BME280;5668;52.012;8.724;2023-01-26T03:00:14;100935.16;;;1.59;91.53
11223;BME280;5668;52.012;8.724;2023-01-26T03:02:43;100923.19;;;1.60;92.01
11223;BME280;5668;52.012;8.724;2023-01-26T03:05:12;100921.47;;;1.62;92.34
11223;BME280;5668;52.012;8.724;2023-01-26T03:07:39;100924.88;;;1.62;92.19
11223;BME280;5668;52.012;8.724;2023-01-26T03:10:08;100926.56;;;1.63;92.11
11223;BME280;5668;52.012;8.724;2023-01-26T03:12:37;100923.06;;;1.66;91.96
11223;BME280;5668;52.012;8.724;2023-01-26T03:15:05;100922.28;;;1.64;91.70
11223;BME280;5668;52.012;8.724;2023-01-26T03:17:51;100923.22;;;1.58;91.02
11223;BME280;5668;52.012;8.724;2023-01-26T03:20:39;100931.88;;;1.54;91.79
11223;BME280;5668;52.012;8.724;2023-01-26T03:23:24;100925.91;;;1.53;91.67
11223;BME280;5668;52.012;8.724;2023-01-26T03:26:09;100925.88;;;1.55;92.98
11223;BME280;5668;52.012;8.724;2023-01-26T03:28:53;100923.22;;;1.58;92.72
11223;BME280;5668;52.012;8.724;2023-01-26T03:31:21;100924.00;;;1.62;92.06
11223;BME280;5668;52.012;8.724;2023-01-26T03:33:49;100917.22;;;1.61;92.34
11223;BME280;5668;52.012;8.724;2023-01-26T03:36:16;100924.88;;;1.62;92.06
11223;BME280;5668;52.012;8.724;2023-01-26T03:38:44;100914.59;;;1.64;91.78
11223;BME280;5668;52.012;8.724;2023-01-26T03:41:12;100928.25;;;1.63;92.35
11223;BME280;5668;52.012;8.724;2023-01-26T03:43:56;100929.97;;;1.62;92.31
11223;BME280;5668;52.012;8.724;2023-01-26T03:46:41;100913.78;;;1.62;92.48
11223;BME280;5668;52.012;8.724;2023-01-26T03:49:27;100915.47;;;1.63;91.93
11223;BME280;5668;52.012;8.724;2023-01-26T03:52:12;100912.97;;;1.60;92.09
11223;BME280;5668;52.012;8.724;2023-01-26T03:54:57;100910.41;;;1.60;92.58
11223;BME280;5668;52.012;8.724;2023-01-26T03:57:42;100915.53;;;1.60;91.82
11223;BME280;5668;52.012;8.724;2023-01-26T04:00:10;100906.09;;;1.62;92.50
11223;BME280;5668;52.012;8.724;2023-01-26T04:02:40;100896.69;;;1.62;93.02
11223;BME280;5668;52.012;8.724;2023-01-26T04:05:26;100897.56;;;1.61;92.26
11223;BME280;5668;52.012;8.724;2023-01-26T04:08:11;100899.25;;;1.62;92.21
11223;BME280;5668;52.012;8.724;2023-01-26T04:10:48;100901.00;;;1.60;92.85
11223;BME280;5668;52.012;8.724;2023-01-26T04:13:17;100898.41;;;1.62;92.85
11223;BME280;5668;52.012;8.724;2023-01-26T04:16:03;100894.13;;;1.62;92.78
11223;BME280;5668;52.012;8.724;2023-01-26T04:18:48;100894.97;;;1.63;93.13
11223;BME280;5668;52.012;8.724;2023-01-26T04:21:35;100897.44;;;1.66;92.87
11223;BME280;5668;52.012;8.724;2023-01-26T04:24:04;100897.41;;;1.67;92.88
11223;BME280;5668;52.012;8.724;2023-01-26T04:26:35;100899.09;;;1.68;92.44
11223;BME280;5668;52.012;8.724;2023-01-26T04:29:03;100894.81;;;1.69;91.90
11223;BME280;5668;52.012;8.724;2023-01-26T04:31:31;100890.56;;;1.68;92.18
11223;BME280;5668;52.012;8.724;2023-01-26T04:33:58;100896.50;;;1.70;92.13
11223;BME280;5668;52.012;8.724;2023-01-26T04:36:26;100887.09;;;1.70;92.56
11223;BME280;5668;52.012;8.724;2023-01-26T04:38:55;100891.34;;;1.71;92.09
11223;BME280;5668;52.012;8.724;2023-01-26T04:41:22;100893.91;;;1.71;92.27
11223;BME280;5668;52.012;8.724;2023-01-26T04:43:53;100892.19;;;1.72;92.31
11223;BME280;5668;52.012;8.724;2023-01-26T04:46:20;100893.91;;;1.71;92.12
11223;BME280;5668;52.012;8.724;2023-01-26T04:48:47;100886.25;;;1.70;92.06
11223;BME280;5668;52.012;8.724;2023-01-26T04:51:16;100886.31;;;1.67;91.99
11223;BME280;5668;52.012;8.724;2023-01-26T04:53:45;100883.88;;;1.62;92.63
11223;BME280;5668;52.012;8.724;2023-01-26T04:56:19;100891.41;;;1.68;92.05
11223;BME280;5668;52.012;8.724;2023-01-26T04:58:47;100894.06;;;1.65;92.74
11223;BME280;5668;52.012;8.724;2023-01-26T05:01:15;100885.59;;;1.62;92.42
11223;BME280;5668;52.012;8.724;2023-01-26T05:03:42;100889.88;;;1.61;92.55
11223;BME280;5668;52.012;8.724;2023-01-26T05:06:09;100888.22;;;1.59;92.15
11223;BME280;5668;52.012;8.724;2023-01-26T05:08:37;100883.25;;;1.52;92.35
11223;BME280;5668;52.012;8.724;2023-01-26T05:11:05;100879.88;;;1.50;93.23
11223;BME280;5668;52.012;8.724;2023-01-26T05:13:33;100885.78;;;1.54;93.00
11223;BME280;5668;52.012;8.724;2023-01-26T05:16:02;100875.50;;;1.55;92.98
11223;BME280;5668;52.012;8.724;2023-01-26T05:18:29;100877.13;;;1.58;93.54
11223;BME280;5668;52.012;8.724;2023-01-26T05:20:57;100877.97;;;1.59;93.79
11223;BME280;5668;52.012;8.724;2023-01-26T05:23:25;100873.69;;;1.59;93.82
11223;BME280;5668;52.012;8.724;2023-01-26T05:25:52;100890.72;;;1.62;93.29
11223;BME280;5668;52.012;8.724;2023-01-26T05:28:19;100887.31;;;1.61;93.09
11223;BME280;5668;52.012;8.724;2023-01-26T05:30:48;100888.13;;;1.63;93.20
11223;BME280;5668;52.012;8.724;2023-01-26T05:33:15;100893.16;;;1.66;93.23
11223;BME280;5668;52.012;8.724;2023-01-26T05:35:47;100901.75;;;1.65;93.82
11223;BME280;5668;52.012;8.724;2023-01-26T05:38:14;100900.06;;;1.64;93.12
11223;BME280;5668;52.012;8.724;2023-01-26T05:40:41;100895.72;;;1.66;93.14
11223;BME280;5668;52.012;8.724;2023-01-26T05:43:09;100888.03;;;1.66;93.33
11223;BME280;5668;52.012;8.724;2023-01-26T05:45:37;100893.13;;;1.68;93.77
11223;BME280;5668;52.012;8.724;2023-01-26T05:48:06;100889.72;;;1.67;93.41
11223;BME280;5668;52.012;8.724;2023-01-26T05:50:33;100895.72;;;1.66;93.50
11223;BME280;5668;52.012;8.724;2023-01-26T05:53:01;100893.97;;;1.68;93.33
11223;BME280;5668;52.012;8.724;2023-01-26T05:55:28;100891.41;;;1.68;92.74
11223;BME280;5668;52.012;8.724;2023-01-26T05:57:56;100895.66;;;1.69;94.03
11223;BME280;5668;52.012;8.724;2023-01-26T06:00:23;100904.16;;;1.71;93.61
11223;BME280;5668;52.012;8.724;2023-01-26T06:02:51;100891.38;;;1.70;93.20
11223;BME280;5668;52.012;8.724;2023-01-26T06:05:19;100891.31;;;1.73;93.42
11223;BME280;5668;52.012;8.724;2023-01-26T06:07:46;100881.06;;;1.73;93.90
11223;BME280;5668;52.012;8.724;2023-01-26T06:10:14;100884.41;;;1.75;93.28
11223;BME280;5668;52.012;8.724;2023-01-26T06:12:44;100881.84;;;1.75;94.15
11223;BME280;5668;52.012;8.724;2023-01-26T06:15:11;100878.44;;;1.74;93.50
11223;BME280;5668;52.012;8.724;2023-01-26T06:17:39;100882.69;;;1.75;93.16
11223;BME280;5668;52.012;8.724;2023-01-26T06:20:08;100883.56;;;1.74;93.81
11223;BME280;5668;52.012;8.724;2023-01-26T06:22:38;100885.25;;;1.75;94.30
11223;BME280;5668;52.012;8.724;2023-01-26T06:25:06;100887.78;;;1.77;93.77
11223;BME280;5668;52.012;8.724;2023-01-26T06:27:33;100895.50;;;1.75;93.54
11223;BME280;5668;52.012;8.724;2023-01-26T06:30:01;100897.19;;;1.76;93.75
11223;BME280;5668;52.012;8.724;2023-01-26T06:32:30;100897.19;;;1.76;93.10
11223;BME280;5668;52.012;8.724;2023-01-26T06:34:57;100903.28;;;1.72;92.73
11223;BME280;5668;52.012;8.724;2023-01-26T06:37:24;100895.59;;;1.72;93.72
11223;BME280;5668;52.012;8.724;2023-01-26T06:39:53;100905.00;;;1.72;92.99
11223;BME280;5668;52.012;8.724;2023-01-26T06:42:20;100900.72;;;1.72;93.33
11223;BME280;5668;52.012;8.724;2023-01-26T06:44:47;100897.25;;;1.73;93.74
11223;BME280;5668;52.012;8.724;2023-01-26T06:47:14;100898.91;;;1.76;94.46
11223;BME280;5668;52.012;8.724;2023-01-26T06:49:41;100904.00;;;1.77;93.52
11223;BME280;5668;52.012;8.724;2023-01-26T06:52:24;100905.69;;;1.78;93.77
11223;BME280;5668;52.012;8.724;2023-01-26T06:54:55;100897.13;;;1.79;93.43
11223;BME280;5668;52.012;8.724;2023-01-26T06:57:23;100897.97;;;1.80;94.20
11223;BME280;5668;52.012;8.724;2023-01-26T06:59:50;100894.50;;;1.81;93.75
11223;BME280;5668;52.012;8.724;2023-01-26T07:02:19;100890.22;;;1.81;94.36
11223;BME280;5668;52.012;8.724;2023-01-26T07:04:48;100894.47;;;1.82;94.39
11223;BME280;5668;52.012;8.724;2023-01-26T07:07:15;100897.91;;;1.81;93.46
11223;BME280;5668;52.012;8.724;2023-01-26T07:09:43;100895.41;;;1.80;93.79
11223;BME280;5668;52.012;8.724;2023-01-26T07:12:11;100904.81;;;1.79;93.84
11223;BME280;5668;52.012;8.724;2023-01-26T07:14:39;100897.13;;;1.79;94.13
11223;BME280;5668;52.012;8.724;2023-01-26T07:17:06;100897.97;;;1.80;94.74
11223;BME280;5668;52.012;8.724;2023-01-26T07:19:33;100897.91;;;1.81;93.93
11223;BME280;5668;52.012;8.724;2023-01-26T07:22:02;100892.78;;;1.81;94.65
11223;BME280;5668;52.012;8.724;2023-01-26T07:24:29;100888.59;;;1.79;93.54
11223;BME280;5668;52.012;8.724;2023-01-26T07:26:56;100886.91;;;1.78;93.83
11223;BME280;5668;52.012;8.724;2023-01-26T07:29:25;100886.00;;;1.80;93.97
11223;BME280;5668;52.012;8.724;2023-01-26T07:31:52;100885.09;;;1.81;94.13
11223;BME280;5668;52.012;8.724;2023-01-26T07:34:19;100892.72;;;1.84;94.80
11223;BME280;5668;52.012;8.724;2023-01-26T07:36:46;100897.81;;;1.86;93.92
11223;BME280;5668;52.012;8.724;2023-01-26T07:39:13;100897.78;;;1.87;94.72
11223;BME280;5668;52.012;8.724;2023-01-26T07:41:41;100888.44;;;1.85;93.49
11223;BME280;5668;52.012;8.724;2023-01-26T07:44:09;100891.00;;;1.85;94.34
11223;BME280;5668;52.012;8.724;2023-01-26T07:46:37;100896.19;;;1.82;94.52
11223;BME280;5668;52.012;8.724;2023-01-26T07:49:06;100893.69;;;1.80;93.86
11223;BME280;5668;52.012;8.724;2023-01-26T07:51:33;100894.47;;;1.82;94.72
11223;BME280;5668;52.012;8.724;2023-01-26T07:54:01;100890.16;;;1.84;93.77
11223;BME280;5668;52.012;8.724;2023-01-26T07:56:28;100893.53;;;1.86;93.63
11223;BME280;5668;52.012;8.724;2023-01-26T07:58:55;100900.34;;;1.87;93.82
11223;BME280;5668;52.012;8.724;2023-01-26T08:01:23;100898.56;;;1.89;94.22
11223;BME280;5668;52.012;8.724;2023-01-26T08:03:52;100895.16;;;1.89;93.75
11223;BME280;5668;52.012;8.724;2023-01-26T08:06:19;100900.25;;;1.90;94.88
11223;BME280;5668;52.012;8.724;2023-01-26T08:08:47;100895.13;;;1.90;93.71
11223;BME280;5668;52.012;8.724;2023-01-26T08:11:19;100898.56;;;1.89;94.78
11223;BME280;5668;52.012;8.724;2023-01-26T08:13:48;100903.66;;;1.91;94.01
11223;BME280;5668;52.012;8.724;2023-01-26T08:16:16;100908.75;;;1.92;94.27
11223;BME280;5668;52.012;8.724;2023-01-26T08:18:45;100899.31;;;1.94;94.09
11223;BME280;5668;52.012;8.724;2023-01-26T08:21:15;100902.66;;;1.97;93.74
11223;BME280;5668;52.012;8.724;2023-01-26T08:23:42;100910.31;;;1.98;93.73
11223;BME280;5668;52.012;8.724;2023-01-26T08:26:11;100915.38;;;2.01;93.86
11223;BME280;5668;52.012;8.724;2023-01-26T08:28:39;100913.66;;;2.02;93.82
11223;BME280;5668;52.012;8.724;2023-01-26T08:31:09;100911.88;;;2.04;94.63
11223;BME280;5668;52.012;8.724;2023-01-26T08:33:37;100917.84;;;2.04;94.76
11223;BME280;5668;52.012;8.724;2023-01-26T08:36:06;100911.00;;;2.05;94.50
11223;BME280;5668;52.012;8.724;2023-01-26T08:38:36;100905.00;;;2.06;94.45
11223;BME280;5668;52.012;8.724;2023-01-26T08:41:03;100909.22;;;2.08;94.05
11223;BME280;5668;52.012;8.724;2023-01-26T08:43:31;100911.81;;;2.07;93.64
11223;BME280;5668;52.012;8.724;2023-01-26T08:45:58;100922.13;;;2.04;93.80
11223;BME280;5668;52.012;8.724;2023-01-26T08:48:25;100922.97;;;2.04;93.82
11223;BME280;5668;52.012;8.724;2023-01-26T08:50:53;100913.56;;;2.05;93.42
11223;BME280;5668;52.012;8.724;2023-01-26T08:53:21;100918.69;;;2.05;94.51
11223;BME280;5668;52.012;8.724;2023-01-26T08:55:49;100920.41;;;2.04;94.11
11223;BME280;5668;52.012;8.724;2023-01-26T08:58:17;100922.06;;;2.07;94.41
11223;BME280;5668;52.012;8.724;2023-01-26T09:00:45;100916.06;;;2.08;93.98
11223;BME280;5668;52.012;8.724;2023-01-26T09:03:12;100923.66;;;2.11;93.86
11223;BME280;5668;52.012;8.724;2023-01-26T09:05:39;100912.59;;;2.10;94.43
11223;BME280;5668;52.012;8.724;2023-01-26T09:08:08;100913.41;;;2.11;94.88
11223;BME280;5668;52.012;8.724;2023-01-26T09:10:37;100915.19;;;2.09;94.99
11223;BME280;5668;52.012;8.724;2023-01-26T09:13:05;100920.31;;;2.09;94.08
11223;BME280;5668;52.012;8.724;2023-01-26T09:15:33;100924.50;;;2.11;94.47
11223;BME280;5668;52.012;8.724;2023-01-26T09:18:00;100911.66;;;2.13;94.77
11223;BME280;5668;52.012;8.724;2023-01-26T09:20:27;100922.75;;;2.13;94.87
11223;BME280;5668;52.012;8.724;2023-01-26T09:22:54;100925.34;;;2.12;95.16
11223;BME280;5668;52.012;8.724;2023-01-26T09:25:21;100926.19;;;2.12;94.77
11223;BME280;5668;52.012;8.724;2023-01-26T09:27:49;100927.88;;;2.13;94.75
11223;BME280;5668;52.012;8.724;2023-01-26T09:30:17;100915.09;;;2.12;95.84
11223;BME280;5668;52.012;8.724;2023-01-26T09:32:45;100923.63;;;2.12;95.53
11223;BME280;5668;52.012;8.724;2023-01-26T09:35:12;100926.22;;;2.11;96.19
11223;BME280;5668;52.012;8.724;2023-01-26T09:37:39;100916.78;;;2.13;96.28
11223;BME280;5668;52.012;8.724;2023-01-26T09:40:15;100923.53;;;2.17;95.98
11223;BME280;5668;52.012;8.724;2023-01-26T09:42:56;100929.44;;;2.19;96.50
11223;BME280;5668;52.012;8.724;2023-01-26T09:45:30;100923.44;;;2.20;96.96
11223;BME280;5668;52.012;8.724;2023-01-26T09:48:20;100921.66;;;2.22;95.86
11223;BME280;5668;52.012;8.724;2023-01-26T09:50:51;100923.34;;;2.23;96.17
11223;BME280;5668;52.012;8.724;2023-01-26T09:53:26;100920.75;;;2.24;96.96
11223;BME280;5668;52.012;8.724;2023-01-26T09:55:55;100921.59;;;2.25;96.11
11223;BME280;5668;52.012;8.724;2023-01-26T09:58:30;100926.63;;;2.28;96.63
11223;BME280;5668;52.012;8.724;2023-01-26T10:01:02;100916.38;;;2.28;95.85
11223;BME280;5668;52.012;8.724;2023-01-26T10:03:34;100928.31;;;2.29;96.83
11223;BME280;5668;52.012;8.724;2023-01-26T10:06:13;100920.59;;;2.30;95.62
11223;BME280;5668;52.012;8.724;2023-01-26T10:08:43;100930.00;;;2.30;95.94
11223;BME280;5668;52.012;8.724;2023-01-26T10:11:15;100928.31;;;2.29;95.65
11223;BME280;5668;52.012;8.724;2023-01-26T10:13:49;100924.88;;;2.30;96.13
11223;BME280;5668;52.012;8.724;2023-01-26T10:16:19;100919.75;;;2.30;96.94
11223;BME280;5668;52.012;8.724;2023-01-26T10:18:53;100923.13;;;2.32;97.01
11223;BME280;5668;52.012;8.724;2023-01-26T10:21:26;100907.75;;;2.32;95.85
11223;BME280;5668;52.012;8.724;2023-01-26T10:23:59;100906.06;;;2.31;96.39
11223;BME280;5668;52.012;8.724;2023-01-26T10:26:30;100900.94;;;2.31;96.08
11223;BME280;5668;52.012;8.724;2023-01-26T10:28:58;100900.81;;;2.34;96.34
11223;BME280;5668;52.012;8.724;2023-01-26T10:31:29;100893.94;;;2.36;96.02
11223;BME280;5668;52.012;8.724;2023-01-26T10:33:58;100899.03;;;2.38;96.24
11223;BME280;5668;52.012;8.724;2023-01-26T10:36:29;100893.03;;;2.39;96.34
11223;BME280;5668;52.012;8.724;2023-01-26T10:39:04;100893.00;;;2.40;96.67
11223;BME280;5668;52.012;8.724;2023-01-26T10:41:34;100887.91;;;2.39;96.62
11223;BME280;5668;52.012;8.724;2023-01-26T10:44:03;100891.31;;;2.39;95.98
11223;BME280;5668;52.012;8.724;2023-01-26T10:46:45;100891.31;;;2.39;97.09
11223;BME280;5668;52.012;8.724;2023-01-26T10:49:16;100893.88;;;2.39;95.92
11223;BME280;5668;52.012;8.724;2023-01-26T10:51:45;100894.72;;;2.40;96.20
11223;BME280;5668;52.012;8.724;2023-01-26T10:54:18;100893.00;;;2.40;96.48
11223;BME280;5668;52.012;8.724;2023-01-26T10:56:49;100886.06;;;2.42;96.61
11223;BME280;5668;52.012;8.724;2023-01-26T10:59:26;100883.50;;;2.42;96.43
11223;BME280;5668;52.012;8.724;2023-01-26T11:01:58;100881.00;;;2.41;96.26
11223;BME280;5668;52.012;8.724;2023-01-26T11:04:27;100892.09;;;2.41;96.36
11223;BME280;5668;52.012;8.724;2023-01-26T11:06:55;100879.22;;;2.43;96.50
11223;BME280;5668;52.012;8.724;2023-01-26T11:09:26;100873.25;;;2.42;97.44
11223;BME280;5668;52.012;8.724;2023-01-26T11:11:59;100867.28;;;2.42;96.77
11223;BME280;5668;52.012;8.724;2023-01-26T11:14:28;100867.28;;;2.42;96.35
11223;BME280;5668;52.012;8.724;2023-01-26T11:17:06;100864.69;;;2.43;96.75
11223;BME280;5668;52.012;8.724;2023-01-26T11:19:44;100868.06;;;2.45;96.88
11223;BME280;5668;52.012;8.724;2023-01-26T11:22:18;100864.63;;;2.46;97.15
11223;BME280;5668;52.012;8.724;2023-01-26T11:24:53;100866.34;;;2.46;97.79
11223;BME280;5668;52.012;8.724;2023-01-26T11:27:34;100855.19;;;2.47;97.25
11223;BME280;5668;52.012;8.724;2023-01-26T11:30:18;100853.47;;;2.47;97.10
11223;BME280;5668;52.012;8.724;2023-01-26T11:32:56;100850.00;;;2.48;97.78
11223;BME280;5668;52.012;8.724;2023-01-26T11:35:31;100859.34;;;2.51;97.15
11223;BME280;5668;52.012;8.724;2023-01-26T11:38:10;100855.94;;;2.50;98.11
11223;BME280;5668;52.012;8.724;2023-01-26T11:40:46;100850.81;;;2.50;98.05
11223;BME280;5668;52.012;8.724;2023-01-26T11:43:40;100849.94;;;2.51;97.45
11223;BME280;5668;52.012;8.724;2023-01-26T11:46:21;100842.22;;;2.51;97.13
11223;BME280;5668;52.012;8.724;2023-01-26T11:49:02;100838.78;;;2.52;97.86
11223;BME280;5668;52.012;8.724;2023-01-26T11:51:45;100837.03;;;2.54;97.35
11223;BME280;5668;52.012;8.724;2023-01-26T11:54:27;100840.47;;;2.53;97.41
11223;BME280;5668;52.012;8.724;2023-01-26T11:57:09;100835.34;;;2.53;98.42
11223;BME280;5668;52.012;8.724;2023-01-26T11:59:43;100836.19;;;2.54;97.67
11223;BME280;5668;52.012;8.724;2023-01-26T12:02:26;100829.25;;;2.56;97.61
11223;BME280;5668;52.012;8.724;2023-01-26T12:04:58;100821.56;;;2.56;98.77
11223;BME280;5668;52.012;8.724;2023-01-26T12:07:31;100823.31;;;2.55;98.64
11223;BME280;5668;52.012;8.724;2023-01-26T12:10:22;100822.47;;;2.55;98.77
11223;BME280;5668;52.012;8.724;2023-01-26T12:12:53;100821.56;;;2.56;98.23
11223;BME280;5668;52.012;8.724;2023-01-26T12:15:24;100824.06;;;2.59;98.49
11223;BME280;5668;52.012;8.724;2023-01-26T12:17:58;100824.91;;;2.59;98.06
11223;BME280;5668;52.012;8.724;2023-01-26T12:20:35;100815.47;;;2.60;98.06
11223;BME280;5668;52.012;8.724;2023-01-26T12:23:09;100814.63;;;2.59;98.17
11223;BME280;5668;52.012;8.724;2023-01-26T12:25:39;100815.44;;;2.61;98.44
11223;BME280;5668;52.012;8.724;2023-01-26T12:28:16;100812.84;;;2.63;98.95
11223;BME280;5668;52.012;8.724;2023-01-26T12:30:54;100813.72;;;2.62;99.02
11223;BME280;5668;52.012;8.724;2023-01-26T12:33:23;100807.75;;;2.61;99.06
11223;BME280;5668;52.012;8.724;2023-01-26T12:36:17;100805.97;;;2.63;98.25
11223;BME280;5668;52.012;8.724;2023-01-26T12:39:02;100799.94;;;2.64;98.50
11223;BME280;5668;52.012;8.724;2023-01-26T12:41:42;100807.59;;;2.66;98.70
11223;BME280;5668;52.012;8.724;2023-01-26T12:44:22;100803.31;;;2.66;99.18
11223;BME280;5668;52.012;8.724;2023-01-26T12:46:57;100799.88;;;2.67;99.32
11223;BME280;5668;52.012;8.724;2023-01-26T12:49:30;100796.41;;;2.68;98.49
11223;BME280;5668;52.012;8.724;2023-01-26T12:52:05;100794.69;;;2.69;99.23
11223;BME280;5668;52.012;8.724;2023-01-26T12:54:37;100792.91;;;2.71;98.33
11223;BME280;5668;52.012;8.724;2023-01-26T12:57:12;100798.09;;;2.69;98.54
11223;BME280;5668;52.012;8.724;2023-01-26T12:59:42;100795.47;;;2.71;99.33
11223;BME280;5668;52.012;8.724;2023-01-26T13:02:22;100803.97;;;2.73;98.33
11223;BME280;5668;52.012;8.724;2023-01-26T13:04:51;100799.69;;;2.73;98.47
11223;BME280;5668;52.012;8.724;2023-01-26T13:07:29;100794.53;;;2.73;98.99
11223;BME280;5668;52.012;8.724;2023-01-26T13:10:25;100790.28;;;2.72;98.24
11223;BME280;5668;52.012;8.724;2023-01-26T13:12:55;100791.09;;;2.75;99.41
11223;BME280;5668;52.012;8.724;2023-01-26T13:15:24;100790.22;;;2.76;98.32
11223;BME280;5668;52.012;8.724;2023-01-26T13:17:53;100790.22;;;2.76;98.76
11223;BME280;5668;52.012;8.724;2023-01-26T13:23:41;100778.31;;;2.73;98.72
11223;BME280;5668;52.012;8.724;2023-01-26T13:29:33;100787.66;;;2.76;98.45
11223;BME280;5668;52.012;8.724;2023-01-26T13:35:22;100785.09;;;2.76;98.94
11223;BME280;5668;52.012;8.724;2023-01-26T13:37:56;100779.84;;;2.79;98.42
11223;BME280;5668;52.012;8.724;2023-01-26T13:40:31;100784.91;;;2.82;99.18